MHRO

Details ICAO MHRO (RTB)
Name Roatan
Region Honduras
Timezone Unknown
Plans Departing 114
Arriving 112
Stats Elevation 18 ft / 5 m (AMSL)
Location 16.316600° -86.523400°
Runways 1
Magnetic Variation 1.549° W
Sunrise 2018-12-19 12:09:51 UTC / 2018-12-19 12:09:51 Local
Sunset 2018-12-19 23:19:12 UTC / 2018-12-19 23:19:12 Local
Advertisement - Login to hide

Runways

ID Width Length Bearing (true/mag) Surface Threshold Overrun Markings Lighting
07 148 ft / 45 m 7,672 ft / 2,338 m 65.02° / 66.57° ASPHALT 518 ft / 158 m 0 ft / 0 m PREC-APP EDGE THRESHOLD
25 148 ft / 45 m 7,672 ft / 2,338 m 245.02° / 246.57° ASPHALT 0 ft / 0 m 0 ft / 0 m PREC-APP EDGE THRESHOLD

Map

Weather


0- 5 10 15 20 25 30 35+ Temperature / °C

Clouds and Precipitation
Forecast for 2018-12-19 12:00 UTC. Updated 6 hours ago

Ground ~20,000 ft ~40,000 ft Winds

METAR

MHRO 191500Z 15003KT 9999 FEW025 26/23 Q1014 A2995 NOSIG

TAF

Not found

Frequencies

Ground 121.60 MHz Roatan Ground
Tower 118.10 MHz Roatan Tower
Warning: Do not use this data for real-world aviation or navigation. No guarantee of current accuracy is given.